Time;durP1;ratioP1;P1;durP2;ratioP2;P2;SDS_P1;SDS_P2;PMS_P1;PMS_P2;Temp;Humidity;BMP_temperature;BMP_pressure;BME280_temperature;BME280_humidity;BME280_pressure;Samples;Min_cycle;Max_cycle;Signal;HPM_P1;HPM_P2
2022/04/30 00:00:21;;;;;;;11.60;9.63;;;;;;;12.32;88.95;98608.34;5071057;28;20221;-68
2022/04/30 00:02:49;;;;;;;12.73;9.83;;;;;;;12.26;89.86;98603.44;5072796;28;20570;-68
2022/04/30 00:05:17;;;;;;;10.33;9.00;;;;;;;12.24;90.11;98595.59;5072962;28;20211;-68
2022/04/30 00:07:44;;;;;;;11.10;9.93;;;;;;;12.24;91.18;98594.75;5072867;28;20216;-68
2022/04/30 00:10:10;;;;;;;12.43;10.53;;;;;;;12.25;91.24;98596.47;5072764;28;20220;-68
2022/04/30 00:12:37;;;;;;;12.17;10.27;;;;;;;12.25;90.94;98594.66;5072686;28;20671;-68
2022/04/30 00:15:05;;;;;;;11.47;9.93;;;;;;;12.26;90.80;98600.81;5070941;28;20737;-69
2022/04/30 00:17:31;;;;;;;12.43;9.90;;;;;;;12.29;91.14;98604.09;5072781;28;20235;-68
2022/04/30 00:19:59;;;;;;;10.77;9.67;;;;;;;12.30;90.92;98605.78;5072408;28;20218;-68
2022/04/30 00:22:26;;;;;;;11.27;10.10;;;;;;;12.38;90.51;98602.59;5072500;28;20216;-68
2022/04/30 00:24:52;;;;;;;12.53;11.03;;;;;;;12.36;87.90;98610.66;5072445;28;20588;-68
2022/04/30 00:27:20;;;;;;;11.67;10.47;;;;;;;12.40;86.39;98611.31;5072701;28;20210;-68
2022/04/30 00:29:47;;;;;;;11.70;10.50;;;;;;;12.44;84.75;98603.03;5075286;28;20224;-68
2022/04/30 00:32:13;;;;;;;11.37;10.27;;;;;;;12.40;85.14;98606.03;5076713;28;20214;-68
2022/04/30 00:34:41;;;;;;;10.27;9.27;;;;;;;12.38;85.40;98597.31;5076288;28;20237;-69
2022/04/30 00:37:09;;;;;;;11.67;10.13;;;;;;;12.39;85.49;98605.16;5076190;28;20222;-69
2022/04/30 00:39:36;;;;;;;10.33;9.33;;;;;;;12.29;84.91;98608.56;5076372;28;20218;-68
2022/04/30 00:42:03;;;;;;;10.20;9.20;;;;;;;12.32;85.00;98605.69;5074558;28;20288;-70
2022/04/30 00:44:30;;;;;;;9.60;8.60;;;;;;;12.19;85.28;98613.63;5076043;28;20226;-67
2022/04/30 00:46:56;;;;;;;9.10;8.20;;;;;;;12.25;84.81;98607.06;5075914;28;20681;-68
2022/04/30 00:49:23;;;;;;;8.43;7.63;;;;;;;12.20;84.52;98609.16;5076363;28;20229;-69
2022/04/30 00:51:50;;;;;;;10.57;8.50;;;;;;;12.18;84.84;98603.97;5076391;28;20220;-69
2022/04/30 00:54:19;;;;;;;9.30;8.30;;;;;;;12.15;85.38;98603.31;5076109;28;20283;-69
2022/04/30 00:56:50;;;;;;;9.33;8.37;;;;;;;12.18;85.24;98611.09;5076149;28;20210;-68
2022/04/30 00:59:18;;;;;;;9.83;8.30;;;;;;;12.16;85.37;98607.69;5069883;28;20222;-69
2022/04/30 01:01:46;;;;;;;9.70;8.80;;;;;;;12.14;85.71;98614.88;5071892;28;20247;-67
2022/04/30 01:04:14;;;;;;;9.90;8.73;;;;;;;12.13;86.01;98607.88;5071382;28;20257;-68
2022/04/30 01:06:50;;;;;;;10.27;8.93;;;;;;;12.09;86.41;98606.38;5066427;28;20218;-68
2022/04/30 01:09:20;;;;;;;11.27;8.70;;;;;;;12.10;86.99;98602.81;5075755;28;20257;-68
2022/04/30 01:11:49;;;;;;;9.87;8.87;;;;;;;12.03;87.87;98604.16;5071835;28;20218;-68
2022/04/30 01:14:17;;;;;;;14.03;9.70;;;;;;;12.03;88.16;98612.09;5075553;28;20217;-68
2022/04/30 01:16:44;;;;;;;9.93;8.80;;;;;;;11.95;89.31;98617.06;5075816;28;20230;-68
2022/04/30 01:19:18;;;;;;;10.10;9.10;;;;;;;11.92;90.44;98609.34;5075723;28;20213;-68
2022/04/30 01:21:48;;;;;;;11.03;9.87;;;;;;;11.92;91.38;98606.69;5075702;28;20223;-68
2022/04/30 01:24:20;;;;;;;15.07;11.07;;;;;;;11.87;92.09;98611.47;5075545;28;20622;-69
2022/04/30 01:26:47;;;;;;;12.47;10.73;;;;;;;11.88;93.13;98607.84;5073269;28;20204;-70
2022/04/30 01:29:14;;;;;;;14.20;11.53;;;;;;;11.85;93.67;98602.75;5063573;28;20212;-68
2022/04/30 01:37:26;;;;;;;14.17;11.20;;;;;;;11.76;96.00;98593.63;5065153;28;20623;-68
2022/04/30 01:39:58;;;;;;;14.87;12.03;;;;;;;11.75;97.18;98596.38;5074617;28;20218;-67
2022/04/30 01:42:26;;;;;;;15.63;12.83;;;;;;;11.84;97.34;98603.69;5075265;28;20244;-69
2022/04/30 01:44:54;;;;;;;15.93;12.20;;;;;;;11.78;97.97;98596.16;5075190;28;20220;-68
2022/04/30 01:47:22;;;;;;;18.30;13.30;;;;;;;11.72;98.99;98597.44;5075403;28;20222;-68
2022/04/30 01:49:49;;;;;;;15.67;12.77;;;;;;;11.69;100.00;98586.19;5075276;28;20226;-69
2022/04/30 01:52:16;;;;;;;17.27;13.60;;;;;;;11.66;100.00;98581.94;5075152;28;20217;-70
2022/04/30 01:54:44;;;;;;;17.20;13.70;;;;;;;11.66;100.00;98589.03;5075013;28;20277;-68
2022/04/30 01:57:12;;;;;;;19.67;13.17;;;;;;;11.61;100.00;98581.41;5074855;28;20288;-69
2022/04/30 01:59:39;;;;;;;17.13;13.40;;;;;;;11.65;100.00;98574.09;5073415;28;20216;-69
2022/04/30 02:02:07;;;;;;;19.30;13.70;;;;;;;11.63;100.00;98565.41;5074593;28;20672;-68
2022/04/30 02:04:35;;;;;;;20.10;14.03;;;;;;;11.61;100.00;98572.63;5074916;28;20219;-69
2022/04/30 02:07:02;;;;;;;19.17;13.33;;;;;;;11.58;100.00;98572.78;5074916;28;20216;-69
2022/04/30 02:09:31;;;;;;;23.80;13.83;;;;;;;11.55;100.00;98570.34;5074627;28;20228;-69
2022/04/30 02:11:59;;;;;;;16.30;13.20;;;;;;;11.55;100.00;98575.66;5074852;28;20215;-69
2022/04/30 02:14:28;;;;;;;17.60;13.80;;;;;;;11.53;100.00;98581.03;5074320;28;20693;-68
2022/04/30 02:16:54;;;;;;;19.80;14.17;;;;;;;11.53;100.00;98570.44;5074558;28;20222;-69
2022/04/30 02:19:22;;;;;;;25.97;14.63;;;;;;;11.53;100.00;98575.75;5074554;28;20222;-69
2022/04/30 02:21:49;;;;;;;18.70;13.93;;;;;;;11.47;100.00;98572.63;5071773;28;20227;-68
2022/04/30 02:24:16;;;;;;;20.17;15.03;;;;;;;11.39;100.00;98573.16;5062255;28;20229;-69
2022/04/30 02:26:44;;;;;;;20.37;13.93;;;;;;;11.40;100.00;98566.06;5072763;28;20207;-68
2022/04/30 02:29:11;;;;;;;19.03;13.77;;;;;;;11.36;100.00;98573.34;5074064;28;20263;-68
2022/04/30 02:31:39;;;;;;;21.43;14.90;;;;;;;11.40;100.00;98579.28;5073385;28;20263;-69
2022/04/30 02:34:05;;;;;;;20.93;15.00;;;;;;;11.42;100.00;98572.94;5062331;28;20251;-68
2022/04/30 02:36:34;;;;;;;23.77;14.93;;;;;;;11.46;100.00;98568.28;5074177;28;20242;-68
2022/04/30 02:39:01;;;;;;;21.50;15.57;;;;;;;11.44;100.00;98570.22;5074011;28;20216;-68
2022/04/30 02:41:28;;;;;;;20.77;15.57;;;;;;;11.41;100.00;98565.97;5074183;28;20217;-69
2022/04/30 02:43:55;;;;;;;23.37;14.73;;;;;;;11.40;100.00;98563.41;5073920;28;20236;-68
2022/04/30 02:46:22;;;;;;;24.93;15.10;;;;;;;11.44;100.00;98568.38;5074155;28;20298;-68
2022/04/30 02:48:50;;;;;;;21.80;15.27;;;;;;;11.46;100.00;98568.28;5074111;28;20243;-68
2022/04/30 02:51:17;;;;;;;18.93;14.37;;;;;;;11.45;100.00;98566.59;5071865;28;20222;-68
2022/04/30 02:53:45;;;;;;;21.10;14.37;;;;;;;11.44;100.00;98563.09;5073791;28;20217;-68
2022/04/30 02:56:11;;;;;;;22.30;14.27;;;;;;;11.47;100.00;98565.56;5073838;28;20663;-68
2022/04/30 03:01:22;;;;;;;19.87;14.87;;;;;;;11.36;100.00;98565.41;5072864;28;20323;-68
2022/04/30 03:03:50;;;;;;;18.37;14.17;;;;;;;11.29;100.00;98565.91;5073550;28;20220;-68
2022/04/30 03:06:17;;;;;;;20.27;14.33;;;;;;;11.28;100.00;98564.19;5073800;28;20239;-68
2022/04/30 03:08:46;;;;;;;19.43;14.37;;;;;;;11.27;100.00;98562.50;5073770;28;20208;-68
2022/04/30 03:11:13;;;;;;;20.47;15.30;;;;;;;11.31;100.00;98556.09;5073599;28;20221;-68
2022/04/30 03:13:40;;;;;;;22.73;15.00;;;;;;;11.30;100.00;98559.66;5073367;28;20299;-68
2022/04/30 03:21:45;;;;;;;24.87;16.57;;;;;;;11.31;100.00;98559.56;5063887;28;20222;-68
2022/04/30 03:24:13;;;;;;;23.70;17.07;;;;;;;11.27;100.00;98562.50;5073459;28;20284;-68
2022/04/30 03:26:40;;;;;;;26.13;16.10;;;;;;;11.24;100.00;98557.41;5072987;28;20211;-68
2022/04/30 03:29:06;;;;;;;25.67;16.93;;;;;;;11.24;100.00;98560.06;5073027;28;20215;-68
2022/04/30 03:31:32;;;;;;;26.47;17.40;;;;;;;11.25;100.00;98559.13;5073314;28;20213;-68
2022/04/30 03:34:01;;;;;;;24.60;17.17;;;;;;;11.28;100.00;98558.91;5072905;28;20216;-68
2022/04/30 03:36:28;;;;;;;28.30;17.30;;;;;;;11.26;100.00;98566.94;5073029;28;20325;-68
2022/04/30 03:38:54;;;;;;;25.10;17.50;;;;;;;11.22;100.00;98567.25;5073159;28;20585;-68
2022/04/30 03:41:21;;;;;;;23.90;16.40;;;;;;;11.19;100.00;98568.28;5073237;28;20226;-68
2022/04/30 03:43:48;;;;;;;26.13;18.63;;;;;;;11.16;100.00;98571.16;5071447;28;20618;-68
2022/04/30 03:46:15;;;;;;;26.20;18.30;;;;;;;11.22;100.00;98573.41;5073087;28;20210;-69
2022/04/30 03:48:42;;;;;;;29.87;18.47;;;;;;;11.22;100.00;98568.09;5071656;28;20212;-68
2022/04/30 03:51:10;;;;;;;28.07;19.13;;;;;;;11.22;100.00;98570.75;5073193;28;20218;-68
2022/04/30 03:53:36;;;;;;;27.13;17.63;;;;;;;11.21;100.00;98578.78;5073023;28;20588;-68
2022/04/30 03:56:03;;;;;;;26.90;17.33;;;;;;;11.18;100.00;98590.41;5072867;28;20235;-69
2022/04/30 03:58:30;;;;;;;27.23;19.43;;;;;;;11.18;100.00;98581.66;5072869;28;20231;-68
2022/04/30 04:00:56;;;;;;;25.83;18.13;;;;;;;11.21;100.00;98590.22;5072727;28;20265;-68
2022/04/30 04:03:23;;;;;;;27.13;19.00;;;;;;;11.15;100.00;98587.97;5074745;28;20208;-67
2022/04/30 04:05:50;;;;;;;29.70;19.13;;;;;;;11.15;100.00;98595.91;5079366;28;20222;-68
2022/04/30 04:08:20;;;;;;;30.50;19.13;;;;;;;11.15;100.00;98595.06;5079252;28;20271;-69
2022/04/30 04:10:47;;;;;;;25.50;19.40;;;;;;;11.13;100.00;98589.03;5077841;28;20256;-68
2022/04/30 04:18:42;;;;;;;34.10;21.43;;;;;;;10.85;100.00;98583.78;5079270;28;20273;-66
2022/04/30 04:21:09;;;;;;;30.03;21.10;;;;;;;10.76;100.00;98579.91;5079568;28;20291;-68
2022/04/30 04:26:17;;;;;;;34.10;21.60;;;;;;;10.57;100.00;98586.44;5073271;28;20295;-68
2022/04/30 04:28:43;;;;;;;32.80;21.37;;;;;;;10.57;100.00;98591.72;5079430;28;20222;-68
2022/04/30 04:31:10;;;;;;;34.03;22.97;;;;;;;10.50;100.00;98596.56;5079461;28;20575;-68
2022/04/30 04:33:36;;;;;;;32.50;22.37;;;;;;;10.44;100.00;98601.34;5079474;28;20587;-68
2022/04/30 04:36:03;;;;;;;32.87;21.47;;;;;;;10.40;100.00;98605.13;5065357;28;20724;-68
2022/04/30 04:38:31;;;;;;;36.27;23.73;;;;;;;10.38;100.00;98607.00;5079332;28;20219;-69
2022/04/30 04:40:58;;;;;;;34.73;22.20;;;;;;;10.44;100.00;98611.91;5079069;28;20211;-68
2022/04/30 04:43:25;;;;;;;34.90;22.80;;;;;;;10.54;100.00;98615.72;5076612;28;20263;-69
2022/04/30 04:45:51;;;;;;;33.33;22.87;;;;;;;10.41;100.00;98610.31;5067073;28;20211;-67
2022/04/30 04:48:18;;;;;;;34.07;22.00;;;;;;;10.41;100.00;98612.13;5079163;28;20218;-67
2022/04/30 04:50:46;;;;;;;38.17;24.37;;;;;;;10.36;100.00;98609.75;5078872;28;20217;-68
2022/04/30 04:53:15;;;;;;;37.37;22.23;;;;;;;10.38;100.00;98617.56;5076329;28;20250;-68
2022/04/30 04:55:41;;;;;;;34.37;22.17;;;;;;;10.43;100.00;98615.50;5078982;28;20235;-69
2022/04/30 04:58:09;;;;;;;36.83;23.27;;;;;;;10.42;100.00;98627.03;5079208;28;20213;-67
2022/04/30 05:00:36;;;;;;;34.00;22.57;;;;;;;10.37;100.00;98615.88;5067957;28;20217;-70
2022/04/30 05:03:02;;;;;;;38.73;23.37;;;;;;;10.44;100.00;98622.50;5078131;28;20215;-68
2022/04/30 05:05:29;;;;;;;33.93;21.93;;;;;;;10.43;100.00;98623.44;5079060;28;20215;-69
2022/04/30 05:07:56;;;;;;;35.20;23.20;;;;;;;10.41;100.00;98617.41;5079021;28;20215;-68
2022/04/30 05:10:22;;;;;;;31.33;21.90;;;;;;;10.40;100.00;98621.00;5078823;28;20226;-68
2022/04/30 05:12:49;;;;;;;36.30;23.87;;;;;;;10.41;100.00;98623.53;5078574;28;20695;-68
2022/04/30 05:15:16;;;;;;;37.00;22.53;;;;;;;10.49;100.00;98625.72;5075903;28;20247;-68
2022/04/30 05:17:43;;;;;;;33.13;22.20;;;;;;;10.51;100.00;98634.41;5075742;28;20225;-68
2022/04/30 05:20:10;;;;;;;33.77;22.53;;;;;;;10.58;100.00;98643.66;5075742;28;20211;-70
2022/04/30 05:22:36;;;;;;;33.20;21.77;;;;;;;10.54;100.00;98644.78;5075410;28;20222;-67
2022/04/30 05:25:03;;;;;;;31.77;21.53;;;;;;;10.58;100.00;98636.56;5074406;28;20203;-67
2022/04/30 05:27:30;;;;;;;37.30;22.70;;;;;;;10.61;100.00;98643.47;5073680;28;20215;-68
2022/04/30 05:29:56;;;;;;;31.53;22.00;;;;;;;10.55;100.00;98635.91;5075361;28;20588;-68
2022/04/30 05:32:24;;;;;;;31.13;21.00;;;;;;;10.58;100.00;98646.31;5075322;28;20673;-68
2022/04/30 05:34:51;;;;;;;32.90;22.43;;;;;;;10.63;100.00;98654.78;5075493;28;20574;-69
2022/04/30 05:37:17;;;;;;;36.07;22.77;;;;;;;10.67;100.00;98651.88;5075094;28;20704;-67
2022/04/30 05:39:43;;;;;;;36.03;22.50;;;;;;;10.71;100.00;98653.38;5075498;28;20211;-67
2022/04/30 05:42:10;;;;;;;31.73;20.90;;;;;;;10.75;100.00;98656.66;5075251;28;20276;-67
2022/04/30 05:44:36;;;;;;;32.30;21.33;;;;;;;10.74;100.00;98663.78;5074989;28;20701;-68
2022/04/30 05:47:03;;;;;;;32.43;21.30;;;;;;;10.79;100.00;98660.84;5075237;28;20216;-68
2022/04/30 05:49:31;;;;;;;31.33;21.40;;;;;;;10.76;100.00;98666.31;5075027;28;20218;-68
2022/04/30 05:51:58;;;;;;;32.70;21.27;;;;;;;10.77;100.00;98668.03;5075375;28;20223;-68
2022/04/30 05:54:24;;;;;;;37.37;22.97;;;;;;;10.83;100.00;98668.47;5073529;28;20238;-67
2022/04/30 05:56:50;;;;;;;30.27;20.23;;;;;;;10.87;100.00;98669.13;5074899;28;20242;-67
2022/04/30 05:59:18;;;;;;;35.13;22.10;;;;;;;10.92;100.00;98667.94;5075012;28;20235;-67
2022/04/30 06:01:44;;;;;;;33.40;21.93;;;;;;;10.96;100.00;98668.59;5074886;28;20588;-67
2022/04/30 06:04:11;;;;;;;31.93;21.47;;;;;;;11.02;100.00;98673.50;5074932;28;20218;-67
2022/04/30 06:06:38;;;;;;;29.07;20.50;;;;;;;11.10;100.00;98673.84;5075095;28;20227;-68
2022/04/30 06:09:05;;;;;;;30.50;21.47;;;;;;;11.14;100.00;98672.72;5074679;28;20677;-67
2022/04/30 06:11:31;;;;;;;28.57;20.73;;;;;;;11.08;100.00;98673.09;5074803;28;20280;-67
2022/04/30 06:13:58;;;;;;;30.50;20.63;;;;;;;11.08;100.00;98673.09;5074789;28;20214;-67
2022/04/30 06:16:24;;;;;;;31.93;21.67;;;;;;;11.09;100.00;98673.03;5066162;28;20232;-67
2022/04/30 06:18:51;;;;;;;31.53;22.00;;;;;;;11.15;100.00;98677.06;5072520;28;20219;-68
2022/04/30 06:21:17;;;;;;;30.70;21.50;;;;;;;11.09;100.00;98680.09;5074654;28;20223;-67
2022/04/30 06:23:45;;;;;;;32.93;22.23;;;;;;;11.06;100.00;98675.00;5074522;28;20581;-67
2022/04/30 06:26:11;;;;;;;30.80;20.20;;;;;;;10.90;100.00;98677.72;5064738;28;20586;-67
2022/04/30 06:28:39;;;;;;;31.87;21.00;;;;;;;10.79;100.00;98672.28;5072485;28;20592;-67
2022/04/30 06:31:06;;;;;;;30.43;21.43;;;;;;;10.73;100.00;98675.28;5073279;28;20222;-67
2022/04/30 06:33:32;;;;;;;29.10;19.70;;;;;;;10.73;100.00;98677.94;5071803;28;20585;-67
2022/04/30 06:35:59;;;;;;;33.97;22.20;;;;;;;10.77;100.00;98673.31;5073873;28;20213;-67
2022/04/30 06:38:25;;;;;;;33.03;22.93;;;;;;;10.91;100.00;98673.31;5074256;28;20624;-67
2022/04/30 06:40:53;;;;;;;33.13;23.33;;;;;;;10.95;100.00;98667.72;5074099;28;20211;-67
2022/04/30 06:43:21;;;;;;;34.57;21.90;;;;;;;10.98;100.00;98677.25;5074187;28;20239;-67
2022/04/30 06:45:48;;;;;;;32.67;22.83;;;;;;;11.16;100.00;98681.41;5072163;28;20681;-67
2022/04/30 06:48:14;;;;;;;30.03;21.33;;;;;;;11.21;100.00;98681.97;5074011;28;20212;-68
2022/04/30 06:50:41;;;;;;;28.47;20.50;;;;;;;11.22;100.00;98681.03;5071238;28;20222;-68
2022/04/30 06:58:41;;;;;;;31.13;20.47;;;;;;;11.54;100.00;98683.31;5068423;28;20218;-67
2022/04/30 07:03:49;;;;;;;25.67;18.63;;;;;;;11.77;100.00;98688.03;5068774;28;20229;-68
2022/04/30 07:06:16;;;;;;;29.47;18.90;;;;;;;11.80;100.00;98685.16;5070381;28;20211;-68
2022/04/30 07:08:42;;;;;;;23.70;17.57;;;;;;;11.78;100.00;98688.84;5068991;28;20681;-68
2022/04/30 07:11:10;;;;;;;23.83;18.07;;;;;;;11.71;100.00;98685.78;5069542;28;20242;-67
2022/04/30 07:13:37;;;;;;;26.80;19.60;;;;;;;11.72;100.00;98697.19;5071103;28;20212;-69
2022/04/30 07:16:04;;;;;;;26.87;18.33;;;;;;;11.70;100.00;98696.44;5070531;28;20263;-67
2022/04/30 07:18:31;;;;;;;24.60;18.97;;;;;;;11.59;100.00;98691.00;5068848;28;20577;-67
2022/04/30 07:20:57;;;;;;;25.10;18.40;;;;;;;11.57;100.00;98703.47;5070706;28;20557;-68
2022/04/30 07:23:24;;;;;;;25.87;17.87;;;;;;;11.70;100.00;98699.09;5070726;28;20215;-68
2022/04/30 07:25:50;;;;;;;26.40;18.20;;;;;;;11.78;100.00;98707.38;5070405;28;20716;-67
2022/04/30 07:28:18;;;;;;;24.67;17.87;;;;;;;11.69;100.00;98700.06;5070801;28;20234;-67
2022/04/30 07:30:44;;;;;;;23.50;17.20;;;;;;;11.53;100.00;98708.09;5066533;28;20332;-67
2022/04/30 07:33:11;;;;;;;23.97;17.67;;;;;;;11.37;100.00;98702.06;5070541;28;20594;-67
2022/04/30 07:35:37;;;;;;;24.90;17.17;;;;;;;11.42;100.00;98699.13;5070031;28;20669;-67
2022/04/30 07:38:04;;;;;;;22.27;16.70;;;;;;;11.46;100.00;98705.94;5065100;28;20733;-67
2022/04/30 07:40:31;;;;;;;23.43;16.70;;;;;;;11.36;100.00;98704.81;5070415;28;20712;-67
2022/04/30 07:42:58;;;;;;;22.33;16.50;;;;;;;11.38;100.00;98708.22;5070492;28;20239;-67
2022/04/30 07:45:26;;;;;;;22.37;16.37;;;;;;;11.45;100.00;98709.53;5070117;28;20712;-67
2022/04/30 07:47:54;;;;;;;20.13;15.83;;;;;;;11.53;100.00;98712.53;5067332;28;20225;-69
2022/04/30 07:50:21;;;;;;;20.93;16.30;;;;;;;11.52;100.00;98711.69;5070187;28;20238;-68
2022/04/30 07:52:48;;;;;;;22.60;16.63;;;;;;;11.57;100.00;98714.03;5070505;28;20645;-67
2022/04/30 07:55:15;;;;;;;24.60;17.03;;;;;;;11.61;100.00;98711.13;5070092;28;20212;-67
2022/04/30 07:57:41;;;;;;;22.80;17.03;;;;;;;11.62;100.00;98712.00;5067744;28;20240;-67
2022/04/30 08:00:10;;;;;;;22.60;15.80;;;;;;;11.74;100.00;98716.50;5070419;28;20583;-68
2022/04/30 08:02:37;;;;;;;22.00;15.97;;;;;;;11.66;100.00;98716.97;5070427;28;20247;-67
2022/04/30 08:05:05;;;;;;;22.53;16.13;;;;;;;11.59;100.00;98714.81;5068659;28;20221;-68
2022/04/30 08:07:31;;;;;;;20.63;15.03;;;;;;;11.63;100.00;98716.34;5067814;28;20951;-67
2022/04/30 08:09:58;;;;;;;19.47;15.50;;;;;;;11.64;100.00;98723.31;5070288;28;20211;-69
2022/04/30 08:12:24;;;;;;;21.10;15.93;;;;;;;11.54;100.00;98715.09;5070120;28;20696;-68
2022/04/30 08:14:51;;;;;;;21.90;16.53;;;;;;;11.53;100.00;98720.47;5070081;28;20222;-67
2022/04/30 08:17:17;;;;;;;22.70;16.50;;;;;;;11.49;100.00;98726.94;5067436;28;20232;-68
2022/04/30 08:19:45;;;;;;;18.47;15.37;;;;;;;11.43;100.00;98722.03;5067129;28;20582;-68
2022/04/30 08:22:13;;;;;;;20.57;16.50;;;;;;;11.40;100.00;98722.19;5063307;28;20214;-68
2022/04/30 08:24:39;;;;;;;19.87;16.37;;;;;;;11.29;100.00;98724.66;5070223;28;20234;-67
2022/04/30 08:27:06;;;;;;;19.53;16.00;;;;;;;11.31;100.00;98717.50;5068917;28;20210;-68
2022/04/30 08:29:33;;;;;;;22.50;16.70;;;;;;;11.35;100.00;98719.00;5072437;28;20216;-68
2022/04/30 08:31:59;;;;;;;22.23;16.77;;;;;;;11.47;100.00;98716.44;5071028;28;20237;-68
2022/04/30 08:34:26;;;;;;;22.03;16.97;;;;;;;11.30;100.00;98721.06;5072492;28;20215;-68
2022/04/30 08:36:54;;;;;;;23.37;16.73;;;;;;;11.31;100.00;98722.78;5072230;28;20322;-67
2022/04/30 08:39:20;;;;;;;20.23;16.27;;;;;;;11.38;100.00;98718.81;5072383;28;20208;-68
2022/04/30 08:41:47;;;;;;;20.77;16.07;;;;;;;11.34;100.00;98722.59;5072252;28;20220;-68
2022/04/30 08:44:15;;;;;;;20.57;16.27;;;;;;;11.27;100.00;98716.84;5072471;28;20738;-68
2022/04/30 08:46:42;;;;;;;23.40;15.50;;;;;;;11.33;100.00;98715.59;5065769;28;20272;-68
2022/04/30 08:49:09;;;;;;;23.57;16.73;;;;;;;11.26;100.00;98720.41;5071306;28;20218;-68
2022/04/30 08:51:36;;;;;;;21.87;16.30;;;;;;;11.26;100.00;98720.41;5074547;28;20214;-68
2022/04/30 08:54:04;;;;;;;23.17;16.50;;;;;;;11.11;100.00;98715.22;5074593;28;20214;-68
2022/04/30 08:56:31;;;;;;;18.73;15.03;;;;;;;11.05;100.00;98715.59;5074073;28;20219;-68
2022/04/30 08:58:58;;;;;;;21.37;15.60;;;;;;;11.06;100.00;98718.16;5074212;28;20215;-68
2022/04/30 09:01:24;;;;;;;24.60;16.70;;;;;;;11.14;100.00;98715.88;5074805;28;20223;-68
2022/04/30 09:03:51;;;;;;;20.37;16.67;;;;;;;11.29;100.00;98714.09;5074766;28;20211;-68
2022/04/30 09:06:18;;;;;;;22.63;17.30;;;;;;;11.40;100.00;98719.56;5074753;28;20222;-68
2022/04/30 09:08:48;;;;;;;19.93;15.97;;;;;;;11.50;100.00;98715.38;5074606;28;20218;-69
2022/04/30 09:11:16;;;;;;;22.30;16.47;;;;;;;11.62;100.00;98720.75;5073713;28;20211;-69
2022/04/30 09:13:44;;;;;;;19.97;15.37;;;;;;;11.69;100.00;98718.59;5074221;28;20628;-69
2022/04/30 09:16:21;;;;;;;21.50;16.23;;;;;;;11.81;100.00;98712.50;5068815;28;20208;-69
2022/04/30 09:18:48;;;;;;;18.10;15.00;;;;;;;11.92;100.00;98720.59;5069161;28;20472;-70
2022/04/30 09:21:15;;;;;;;17.80;13.90;;;;;;;11.91;100.00;98724.19;5071074;28;20211;-69
2022/04/30 09:23:43;;;;;;;17.43;14.73;;;;;;;11.76;100.00;98720.75;5069655;28;20212;-68
2022/04/30 09:26:09;;;;;;;14.83;13.07;;;;;;;11.64;100.00;98720.69;5070979;28;20216;-68
2022/04/30 09:28:39;;;;;;;17.27;14.00;;;;;;;11.49;100.00;98716.34;5071171;28;20208;-69
2022/04/30 09:31:07;;;;;;;14.97;11.97;;;;;;;11.44;100.00;98721.06;5062812;28;20222;-69
2022/04/30 09:33:34;;;;;;;12.80;11.23;;;;;;;11.46;100.00;98716.53;5071284;28;20216;-69
2022/04/30 09:38:49;;;;;;;12.27;9.80;;;;;;;11.50;100.00;98723.31;5073259;28;20242;-68
2022/04/30 09:41:22;;;;;;;10.23;8.70;;;;;;;11.38;100.00;98724.09;5070908;28;20578;-68
2022/04/30 09:43:59;;;;;;;10.30;9.20;;;;;;;11.28;100.00;98729.13;5067511;28;20378;-69
2022/04/30 09:46:26;;;;;;;12.00;9.80;;;;;;;11.29;100.00;98727.31;5072494;28;20216;-69
2022/04/30 09:54:22;;;;;;;15.17;11.33;;;;;;;11.39;100.00;98725.81;5073451;28;20344;-69
2022/04/30 09:56:51;;;;;;;13.10;11.03;;;;;;;11.38;100.00;98716.16;5070268;28;20668;-68
2022/04/30 09:59:23;;;;;;;15.67;12.00;;;;;;;11.46;100.00;98717.38;5069569;28;20219;-69
2022/04/30 10:01:50;;;;;;;13.20;11.27;;;;;;;11.60;100.00;98719.16;5068487;28;20212;-69
2022/04/30 10:04:18;;;;;;;12.13;10.83;;;;;;;11.61;100.00;98723.53;5070188;28;20588;-67
2022/04/30 10:06:46;;;;;;;12.10;10.37;;;;;;;11.60;100.00;98719.16;5070189;28;20231;-69
2022/04/30 10:09:15;;;;;;;12.70;10.43;;;;;;;11.48;100.00;98719.91;5068737;28;20224;-67
2022/04/30 10:11:54;;;;;;;10.80;9.67;;;;;;;11.35;100.00;98729.56;5069084;28;20209;-67
2022/04/30 10:14:36;;;;;;;12.87;10.10;;;;;;;11.30;100.00;98721.06;5064908;28;20315;-69
2022/04/30 10:17:12;;;;;;;10.10;9.00;;;;;;;11.17;100.00;98726.28;5071662;28;20222;-67
2022/04/30 10:19:39;;;;;;;8.87;7.93;;;;;;;11.10;100.00;98726.75;5072938;28;20222;-69
2022/04/30 10:22:10;;;;;;;10.63;8.90;;;;;;;11.10;100.00;98721.47;5073478;28;20218;-67
2022/04/30 10:24:41;;;;;;;8.73;7.83;;;;;;;11.13;100.00;98719.47;5072959;28;20680;-68
2022/04/30 10:27:08;;;;;;;8.93;7.93;;;;;;;11.17;100.00;98725.44;5069337;28;20207;-68
2022/04/30 10:29:36;;;;;;;7.87;7.00;;;;;;;11.04;100.00;98721.84;5073315;28;20211;-67
2022/04/30 10:32:03;;;;;;;7.53;6.73;;;;;;;10.89;100.00;98725.44;5072792;28;20207;-68
2022/04/30 10:34:30;;;;;;;7.37;6.60;;;;;;;10.77;100.00;98724.38;5072783;28;20212;-68
2022/04/30 10:36:58;;;;;;;8.30;7.33;;;;;;;10.75;100.00;98722.78;5072775;28;20207;-68
2022/04/30 10:39:24;;;;;;;7.60;6.43;;;;;;;10.74;100.00;98721.94;5072904;28;20238;-68
2022/04/30 10:41:53;;;;;;;7.50;6.60;;;;;;;10.80;100.00;98726.00;5072553;28;20233;-67
2022/04/30 10:44:28;;;;;;;7.53;6.73;;;;;;;10.76;100.00;98720.03;5071085;28;20647;-67
2022/04/30 10:46:56;;;;;;;7.30;6.27;;;;;;;10.76;100.00;98724.50;5072757;28;20215;-68
2022/04/30 10:49:23;;;;;;;6.87;6.03;;;;;;;10.73;100.00;98722.03;5072348;28;20684;-68
2022/04/30 10:51:55;;;;;;;9.00;6.60;;;;;;;10.77;100.00;98720.91;5072670;28;20226;-67
2022/04/30 10:54:23;;;;;;;7.57;6.73;;;;;;;10.87;100.00;98722.03;5072416;28;20222;-67
2022/04/30 10:56:59;;;;;;;7.27;6.20;;;;;;;10.93;100.00;98721.66;5072237;28;20222;-68
2022/04/30 10:59:26;;;;;;;6.00;5.20;;;;;;;11.08;100.00;98721.56;5071397;28;20236;-68
2022/04/30 11:01:53;;;;;;;6.37;5.77;;;;;;;11.27;100.00;98718.63;5072419;28;20473;-68
2022/04/30 11:04:21;;;;;;;5.43;4.93;;;;;;;11.43;100.00;98716.72;5072329;28;20207;-68
2022/04/30 11:06:51;;;;;;;4.10;3.70;;;;;;;11.51;100.00;98717.09;5072310;28;20222;-68
2022/04/30 11:09:19;;;;;;;4.10;3.80;;;;;;;11.58;100.00;98718.38;5072302;28;20265;-68
2022/04/30 11:11:47;;;;;;;3.30;2.93;;;;;;;11.72;100.00;98718.38;5070352;28;20700;-67
2022/04/30 11:14:16;;;;;;;4.03;3.63;;;;;;;11.78;100.00;98712.69;5070837;28;20215;-67
2022/04/30 11:16:45;;;;;;;4.37;3.60;;;;;;;11.76;100.00;98717.25;5071572;28;20220;-67
2022/04/30 11:19:13;;;;;;;4.77;3.90;;;;;;;11.80;100.00;98711.63;5071979;28;20242;-67
2022/04/30 11:21:43;;;;;;;4.63;4.23;;;;;;;11.89;100.00;98710.19;5072139;28;20226;-68
2022/04/30 11:24:10;;;;;;;4.80;4.30;;;;;;;11.97;100.00;98711.41;5072023;28;20583;-67
2022/04/30 11:26:37;;;;;;;5.27;4.77;;;;;;;11.99;100.00;98711.31;5072031;28;20210;-67
2022/04/30 11:29:08;;;;;;;4.53;4.13;;;;;;;12.02;100.00;98705.78;5071772;28;20216;-67
2022/04/30 11:31:34;;;;;;;4.20;3.80;;;;;;;11.91;100.00;98697.69;5072121;28;20215;-68
2022/04/30 11:34:08;;;;;;;5.23;4.70;;;;;;;12.01;100.00;98709.41;5071932;28;20219;-67
2022/04/30 11:36:39;;;;;;;4.40;4.00;;;;;;;12.28;100.00;98704.94;5070946;28;20247;-68
2022/04/30 11:39:06;;;;;;;4.13;3.73;;;;;;;12.44;100.00;98711.75;5070230;28;20239;-68
2022/04/30 11:41:38;;;;;;;4.67;3.90;;;;;;;12.65;100.00;98701.47;5071963;28;20227;-67
2022/04/30 11:44:05;;;;;;;5.00;4.60;;;;;;;12.85;100.00;98699.13;5071889;28;20242;-67
2022/04/30 11:46:31;;;;;;;4.93;4.53;;;;;;;13.18;98.45;98701.25;5071428;28;20216;-67
2022/04/30 11:48:58;;;;;;;4.93;4.53;;;;;;;13.54;98.18;98699.50;5071720;28;20215;-67
2022/04/30 11:51:28;;;;;;;4.43;4.03;;;;;;;13.42;96.16;98697.72;5062457;28;20227;-67
2022/04/30 11:53:54;;;;;;;4.30;3.90;;;;;;;13.49;97.16;98696.34;5070149;28;20216;-68